• Join FlightAware (Why Join?)
  • Login
  • US Flag 
Gobble Gobble! 
04:57PM EST


 

Airport Tracker/Info


-or-


 

Live Flight TrackerFlight Track Log ✈ N2952Y ✈ 30-Apr-2013 ✈ KCAK - KSBN

Flight Track Log - Related Links

Times and Time Zones

All times are in EDT time to prevent confusion due to time zone crossing. See the N2952Y flight status page for this flight to view local times or setup timezone preferences in your user account.

Time Position Orientation Groundspeed Altitude Reporting Facility
EDT Latitude Longitude Course Direction KTS MPH feet Rate Location/Type
10:28PM 39.9439 -77.6450 272° West 120 138 8,000  Level Cleveland Center
10:28PM 39.9444 -77.6667 272° West 121 139 8,000  Level Cleveland Center
10:29PM 39.9433 -77.7100 268° West 121 139 8,000  Level Cleveland Center
10:30PM 39.9422 -77.7533 268° West 120 138 8,000  Level Cleveland Center
10:31PM 39.9414 -77.7994 269° West 120 138 8,100 60 Climbing Cleveland Center
10:33PM 39.9502 -77.8346 288° West  Level Estimated
10:40PM 40.0096 -78.0733 288° West  Level Estimated
10:41PM 40.0180 -78.1074 288° West  Level Estimated
10:42PM 40.0265 -78.1416 288° West  Level Estimated
10:43PM 40.0349 -78.1757 288° West  Level Estimated
10:44PM 40.0433 -78.2099 288° West  Level Estimated
10:45PM 40.0517 -78.2440 288° West  Level Estimated
10:46PM 40.0601 -78.2782 288° West  Level Estimated
10:47PM 40.0685 -78.3124 288° West  Level Estimated
10:48PM 40.0768 -78.3466 288° West  Level Estimated
10:49PM 40.0852 -78.3808 288° West  Level Estimated
10:50PM 40.0935 -78.4150 288° West  Level Estimated
10:51PM 40.1019 -78.4492 288° West  Level Estimated
10:52PM 40.1102 -78.4834 288° West  Level Estimated
10:53PM 40.1185 -78.5176 288° West  Level Estimated
10:54PM 40.1268 -78.5519 288° West  Level Estimated
10:55PM 40.1351 -78.5861 288° West  Level Estimated
10:56PM 40.1434 -78.6204 288° West  Level Estimated
10:57PM 40.1517 -78.6546 288° West  Level Estimated
10:58PM 40.1600 -78.6889 288° West  Level Estimated
10:59PM 40.1682 -78.7232 288° West  Level Estimated
11:00PM 40.1765 -78.7575 287° West  Level Estimated
11:01PM 40.1847 -78.7918 287° West  Level Estimated
11:02PM 40.1930 -78.8261 287° West  Level Estimated
11:03PM 40.2012 -78.8604 287° West  Level Estimated
11:04PM 40.2094 -78.8947 287° West  Level Estimated
11:05PM 40.2176 -78.9290 287° West  Level Estimated
11:06PM 40.2258 -78.9634 287° West  Level Estimated
11:07PM 40.2340 -78.9977 287° West  Level Estimated
11:08PM 40.2421 -79.0321 287° West  Level Estimated
11:09PM 40.2503 -79.0664 287° West  Level Estimated
11:10PM 40.2584 -79.1008 287° West  Level Estimated
11:11PM 40.2666 -79.1352 287° West  Level Estimated
11:12PM 40.2747 -79.1696 287° West  Level Estimated
11:13PM 40.2828 -79.2039 287° West  Level Estimated
11:14PM 40.2909 -79.2383 287° West  Level Estimated
11:15PM 40.2990 -79.2728 287° West  Level Estimated
11:16PM 40.3071 -79.3072 287° West  Level Estimated
11:17PM 40.3152 -79.3416 287° West  Level Estimated
11:18PM 40.3233 -79.3761 287° West  Level Estimated
11:19PM 40.3313 -79.4105 287° West  Level Estimated
11:20PM 40.3394 -79.4449 287° West  Level Estimated
11:21PM 40.3474 -79.4794 287° West  Level Estimated
11:22PM 40.3554 -79.5139 287° West  Level Estimated
11:23PM 40.3635 -79.5483 287° West  Level Estimated
11:24PM 40.3715 -79.5828 287° West  Level Estimated
11:25PM 40.3795 -79.6173 287° West  Level Estimated
11:26PM 40.3875 -79.6518 287° West  Level Estimated
11:27PM 40.3955 -79.6863 287° West  Level Estimated
11:28PM 40.4034 -79.7209 287° West  Level Estimated
11:29PM 40.4114 -79.7554 287° West  Level Estimated
11:30PM 40.4193 -79.7899 287° West  Level Estimated
11:31PM 40.4273 -79.8245 287° West  Level Estimated
11:32PM 40.4352 -79.8590 287° West  Level Estimated
11:33PM 40.4431 -79.8936 287° West  Level Estimated
11:34PM 40.4510 -79.9281 287° West  Level Estimated
11:35PM 40.4589 -79.9627 287° West  Level Estimated
11:36PM 40.4668 -79.9973 287° West  Level Estimated
11:37PM 40.4747 -80.0319 287° West  Level Estimated
11:38PM 40.4825 -80.0665 287° West  Level Estimated
11:39PM 40.4904 -80.1011 287° West  Level Estimated
11:40PM 40.4982 -80.1357 287° West  Level Estimated
11:41PM 40.5061 -80.1703 287° West  Level Estimated
11:42PM 40.5139 -80.2050 287° West  Level Estimated
11:43PM 40.5217 -80.2396 287° West  Level Estimated
11:44PM 40.5295 -80.2743 287° West  Level Estimated
11:45PM 40.5373 -80.3089 286° West  Level Estimated
11:46PM 40.5451 -80.3436 286° West  Level Estimated
11:47PM 40.5528 -80.3783 286° West  Level Estimated
11:48PM 40.5606 -80.4129 286° West  Level Estimated
11:49PM 40.5683 -80.4476 286° West  Level Estimated
11:50PM 40.5761 -80.4823 286° West  Level Estimated
11:51PM 40.5838 -80.5170 286° West  Level Estimated
11:52PM 40.5915 -80.5517 286° West  Level Estimated
11:53PM 40.5992 -80.5864 286° West  Level Estimated
11:54PM 40.6069 -80.6212 286° West  Level Estimated
11:55PM 40.6146 -80.6559 286° West  Level Estimated
11:56PM 40.6223 -80.6907 286° West  Level Estimated
11:57PM 40.6300 -80.7254 286° West  Level Estimated
11:58PM 40.6376 -80.7602 286° West  Level Estimated
11:59PM 40.6453 -80.7949 286° West  Level Estimated
12:00AM 40.6529 -80.8297 286° West  Level Estimated
12:01AM 40.6606 -80.8645 286° West  Level Estimated
12:02AM 40.6682 -80.8993 286° West  Level Estimated
12:03AM 40.6758 -80.9341 286° West  Level Estimated
12:04AM 40.6834 -80.9689 286° West  Level Estimated
12:05AM 40.6909 -81.0037 286° West  Level Estimated
12:06AM 40.6985 -81.0385 286° West  Level Estimated
12:07AM 40.7061 -81.0734 286° West  Level Estimated
12:08AM 40.7136 -81.1082 286° West  Level Estimated
12:09AM 40.7212 -81.1431 286° West  Level Estimated
12:10AM 40.7287 -81.1779 286° West  Level Estimated
12:11AM 40.7362 -81.2128 286° West  Level Estimated
12:12AM 40.7437 -81.2477 286° West  Level Estimated
12:13AM 40.7512 -81.2825 286° West  Level Estimated
12:14AM 40.7587 -81.3174 286° West  Level Estimated
12:15AM 40.7662 -81.3523 286° West  Level Estimated
12:16AM 40.7737 -81.3872 286° West  Level Estimated
12:17AM 40.7811 -81.4221 286° West  Level Estimated
12:18AM 40.7886 -81.4570 286° West  Level Estimated
12:19AM 40.7960 -81.4920 286° West  Level Estimated
12:20AM 40.8035 -81.5269 286° West  Level Estimated
12:21AM 40.8109 -81.5618 286° West  Level Estimated
12:22AM 40.8183 -81.5968 286° West  Level Estimated
12:23AM 40.8257 -81.6318 286° West  Level Estimated
12:24AM 40.8330 -81.6667 286° West  Level Estimated
12:25AM 40.8404 -81.7017 286° West  Level Estimated
12:26AM 40.8478 -81.7367 286° West  Level Estimated
12:27AM 40.8551 -81.7717 286° West  Level Estimated
12:28AM 40.8625 -81.8067 286° West  Level Estimated
12:29AM 40.8698 -81.8417 285° West  Level Estimated
12:30AM 40.8771 -81.8767 285° West  Level Estimated
12:31AM 40.8844 -81.9117 285° West  Level Estimated
12:32AM 40.8917 -81.9467 285° West  Level Estimated
12:33AM 40.8990 -81.9818 285° West  Level Estimated
12:34AM 40.9063 -82.0168 285° West  Level Estimated
12:35AM 40.9136 -82.0518 285° West  Level Estimated
12:36AM 40.9208 -82.0869 285° West  Level Estimated
12:37AM 40.9281 -82.1220 285° West  Level Estimated
12:38AM 40.9353 -82.1571 285° West  Level Estimated
12:39AM 40.9426 -82.1921 285° West  Level Estimated
12:40AM 40.9498 -82.2272 285° West  Level Estimated
12:41AM 40.9570 -82.2623 285° West  Level Estimated
12:42AM 40.9641 -82.2974 285° West  Level Estimated
12:43AM 40.9713 -82.3325 285° West  Level Estimated
12:44AM 40.9785 -82.3677 285° West  Level Estimated
12:45AM 40.9857 -82.4028 285° West  Level Estimated
12:46AM 40.9928 -82.4379 285° West  Level Estimated
12:47AM 41.0000 -82.4731 285° West  Level Estimated
12:48AM 41.0071 -82.5082 285° West  Level Estimated
12:49AM 41.0142 -82.5434 285° West  Level Estimated
12:50AM 41.0213 -82.5785 285° West  Level Estimated
12:51AM 41.0284 -82.6137 285° West  Level Estimated
12:52AM 41.0355 -82.6489 285° West  Level Estimated
12:53AM 41.0426 -82.6841 285° West  Level Estimated
12:54AM 41.0496 -82.7193 285° West  Level Estimated
12:55AM 41.0567 -82.7545 285° West  Level Estimated
12:56AM 41.0637 -82.7897 285° West  Level Estimated
12:57AM 41.0708 -82.8249 285° West  Level Estimated
12:58AM 41.0778 -82.8601 285° West  Level Estimated
12:59AM 41.0848 -82.8954 285° West  Level Estimated
01:00AM 41.0918 -82.9306 285° West  Level Estimated
01:01AM 41.0988 -82.9659 285° West  Level Estimated
01:02AM 41.1058 -83.0011 285° West  Level Estimated
01:03AM 41.1127 -83.0364 285° West  Level Estimated
01:04AM 41.1197 -83.0716 285° West  Level Estimated
01:05AM 41.1267 -83.1069 285° West  Level Estimated
01:06AM 41.1336 -83.1422 285° West  Level Estimated
01:07AM 41.1405 -83.1775 285° West  Level Estimated
01:08AM 41.1474 -83.2128 285° West  Level Estimated
01:09AM 41.1543 -83.2481 285° West  Level Estimated
01:10AM 41.1612 -83.2834 285° West  Level Estimated
01:11AM 41.1681 -83.3187 285° West  Level Estimated
01:12AM 41.1750 -83.3541 284° West  Level Estimated
01:13AM 41.1818 -83.3894 284° West  Level Estimated
01:14AM 41.1887 -83.4248 284° West  Level Estimated
01:15AM 41.1955 -83.4601 284° West  Level Estimated
01:16AM 41.2024 -83.4955 284° West  Level Estimated
01:17AM 41.2092 -83.5308 284° West  Level Estimated
01:18AM 41.2160 -83.5662 284° West  Level Estimated
01:19AM 41.2228 -83.6016 284° West  Level Estimated
01:20AM 41.2296 -83.6370 284° West  Level Estimated
01:21AM 41.2363 -83.6724 284° West  Level Estimated
01:22AM 41.2431 -83.7078 284° West  Level Estimated
01:23AM 41.2499 -83.7432 284° West  Level Estimated
01:24AM 41.2566 -83.7786 284° West  Level Estimated
01:25AM 41.2633 -83.8140 284° West  Level Estimated
01:26AM 41.2700 -83.8495 284° West  Level Estimated
01:27AM 41.2767 -83.8849 284° West  Level Estimated
01:28AM 41.2835 -83.9204 284° West  Level Estimated
01:29AM 41.2901 -83.9558 284° West  Level Estimated
01:30AM 41.2968 -83.9913 284° West  Level Estimated
01:31AM 41.3035 -84.0267 284° West  Level Estimated
01:32AM 41.3101 -84.0622 284° West  Level Estimated
01:33AM 41.3168 -84.0977 284° West  Level Estimated
01:34AM 41.3234 -84.1332 284° West  Level Estimated
01:35AM 41.3300 -84.1687 284° West  Level Estimated
01:36AM 41.3366 -84.2042 284° West  Level Estimated
01:37AM 41.3432 -84.2397 284° West  Level Estimated
01:38AM 41.3498 -84.2752 284° West  Level Estimated
01:39AM 41.3564 -84.3108 284° West  Level Estimated
01:40AM 41.3630 -84.3463 284° West  Level Estimated
01:41AM 41.3695 -84.3818 284° West  Level Estimated
01:42AM 41.3761 -84.4174 284° West  Level Estimated
01:43AM 41.3826 -84.4529 284° West  Level Estimated
01:44AM 41.3891 -84.4885 284° West  Level Estimated
01:45AM 41.3956 -84.5241 284° West  Level Estimated
01:46AM 41.4021 -84.5596 284° West  Level Estimated
01:47AM 41.4086 -84.5952 284° West  Level Estimated
01:48AM 41.4151 -84.6308 284° West  Level Estimated
01:49AM 41.4216 -84.6664 284° West  Level Estimated
01:50AM 41.4281 -84.7020 284° West  Level Estimated
01:51AM 41.4345 -84.7376 284° West  Level Estimated
01:52AM 41.4409 -84.7733 284° West  Level Estimated
01:53AM 41.4474 -84.8089 284° West  Level Estimated
01:54AM 41.4538 -84.8445 284° West  Level Estimated
01:55AM 41.4602 -84.8802 283° West  Level Estimated
01:56AM 41.4666 -84.9158 283° West  Level Estimated
01:57AM 41.4729 -84.9515 283° West  Level Estimated
01:58AM 41.4793 -84.9871 283° West  Level Estimated
01:59AM 41.4857 -85.0228 283° West  Level Estimated
02:00AM 41.4920 -85.0585 283° West  Level Estimated
02:01AM 41.4984 -85.0941 283° West  Level Estimated
02:02AM 41.5047 -85.1298 283° West  Level Estimated
02:03AM 41.5110 -85.1655 283° West  Level Estimated
02:04AM 41.5173 -85.2012 283° West  Level Estimated
02:05AM 41.5236 -85.2370 283° West  Level Estimated
02:06AM 41.5299 -85.2727 283° West  Level Estimated
02:07AM 41.5362 -85.3084 283° West  Level Estimated
02:08AM 41.5424 -85.3441 283° West  Level Estimated
02:09AM 41.5487 -85.3799 283° West  Level Estimated
02:10AM 41.5549 -85.4156 283° West  Level Estimated
02:11AM 41.5611 -85.4514 283° West  Level Estimated
02:12AM 41.5674 -85.4871 283° West  Level Estimated
02:13AM 41.5736 -85.5229 283° West  Level Estimated
02:14AM 41.5798 -85.5587 283° West  Level Estimated
02:15AM 41.5859 -85.5944 283° West  Level Estimated
02:16AM 41.5921 -85.6302 283° West  Level Estimated
02:17AM 41.5983 -85.6660 283° West  Level Estimated
02:18AM 41.6044 -85.7018 283° West  Level Estimated
02:19AM 41.6105 -85.7376 283° West  Level Estimated
02:20AM 41.6167 -85.7734 283° West  Level Estimated
02:21AM 41.6228 -85.8093 283° West  Level Estimated
02:22AM 41.6289 -85.8451 283° West  Level Estimated
02:23AM 41.6350 -85.8809 283° West  Level Estimated
02:24AM 41.6411 -85.9168 283° West  Level Estimated
02:25AM 41.6471 -85.9526 283° West  Level Estimated